Time;durP1;ratioP1;P1;durP2;ratioP2;P2;SDS_P1;SDS_P2;PMS_P1;PMS_P2;Temp;Humidity;BMP_temperature;BMP_pressure;BME280_temperature;BME280_humidity;BME280_pressure;Samples;Min_cycle;Max_cycle;Signal;HPM_P1;HPM_P2
2022/09/20 06:43:18;;;;;;;3.55;2.10;;;;;;;14.82;100.00;100374.78;1740063;82;21061;-71
2022/09/20 06:45:46;;;;;;;4.40;2.22;;;;;;;14.91;100.00;100363.45;1726521;82;21063;-71
2022/09/20 06:48:14;;;;;;;4.25;2.27;;;;;;;14.82;100.00;100372.63;1742872;82;21039;-72
2022/09/20 06:50:45;;;;;;;3.10;2.05;;;;;;;14.81;100.00;100369.69;1733401;82;21033;-72
2022/09/20 06:53:18;;;;;;;2.12;1.92;;;;;;;14.66;100.00;100379.27;1735995;82;21076;-71
2022/09/20 06:55:46;;;;;;;3.43;2.30;;;;;;;14.67;100.00;100387.87;1718009;82;21009;-72
2022/09/20 06:58:13;;;;;;;2.30;1.95;;;;;;;14.72;100.00;100384.50;1741094;82;21044;-72
2022/09/20 07:00:40;;;;;;;3.45;2.17;;;;;;;15.20;100.00;100386.17;1743142;82;21071;-72
2022/09/20 07:03:07;;;;;;;3.67;2.20;;;;;;;15.15;100.00;100389.55;1737192;82;21094;-71
2022/09/20 07:05:35;;;;;;;3.27;1.82;;;;;;;15.47;100.00;100392.63;1717779;83;21036;-71
2022/09/20 07:08:02;;;;;;;2.08;1.80;;;;;;;15.52;100.00;100392.30;1736079;82;21090;-71
2022/09/20 07:10:30;;;;;;;5.95;2.30;;;;;;;15.89;100.00;100404.95;1735308;82;21079;-72
2022/09/20 07:12:59;;;;;;;4.28;1.90;;;;;;;16.25;100.00;100403.37;1732137;82;21104;-71
2022/09/20 07:15:28;;;;;;;5.05;1.87;;;;;;;16.27;100.00;100414.48;1729086;82;21024;-72
2022/09/20 07:17:55;;;;;;;6.08;2.40;;;;;;;16.21;100.00;100418.80;1722844;82;21054;-72
2022/09/20 07:20:22;;;;;;;4.75;1.90;;;;;;;16.15;100.00;100415.33;1717483;83;21017;-72
2022/09/20 07:22:50;;;;;;;4.97;2.15;;;;;;;16.16;100.00;100426.06;1725580;82;21558;-72
2022/09/20 07:25:18;;;;;;;3.17;1.90;;;;;;;16.07;100.00;100418.45;1739458;82;21063;-72
2022/09/20 07:27:49;;;;;;;3.60;2.00;;;;;;;16.18;100.00;100409.91;1733238;82;21089;-71
2022/09/20 07:30:17;;;;;;;6.75;1.90;;;;;;;16.19;100.00;100416.78;1736636;82;21103;-71
2022/09/20 07:32:45;;;;;;;6.42;2.10;;;;;;;16.32;100.00;100403.31;1742645;82;21071;-72
2022/09/20 07:35:13;;;;;;;3.45;2.10;;;;;;;16.69;100.00;100409.80;1742499;81;21122;-72
2022/09/20 07:37:42;;;;;;;2.90;2.05;;;;;;;16.76;100.00;100404.99;1742480;82;21063;-72
2022/09/20 07:40:10;;;;;;;5.28;2.40;;;;;;;16.96;100.00;100410.91;1720346;82;21017;-73
2022/09/20 07:42:38;;;;;;;3.45;2.00;;;;;;;16.98;100.00;100400.41;1717568;83;21077;-73
2022/09/20 07:45:07;;;;;;;3.92;1.80;;;;;;;16.98;100.00;100391.30;1718675;83;21069;-72
2022/09/20 07:47:34;;;;;;;2.65;1.70;;;;;;;17.15;100.00;100403.92;1722008;82;21027;-72
2022/09/20 07:50:03;;;;;;;3.27;2.00;;;;;;;17.33;100.00;100407.39;1742425;82;21063;-73
2022/09/20 07:52:30;;;;;;;2.83;1.90;;;;;;;17.35;100.00;100419.81;1734541;82;21015;-73
2022/09/20 07:54:57;;;;;;;4.10;2.05;;;;;;;17.17;100.00;100408.54;1742474;82;21559;-73
2022/09/20 07:57:24;;;;;;;2.92;2.00;;;;;;;17.17;100.00;100403.34;1740059;82;21047;-72
2022/09/20 07:59:54;;;;;;;4.90;2.00;;;;;;;17.12;100.00;100397.63;1729092;82;21012;-74
2022/09/20 08:02:22;;;;;;;4.05;2.00;;;;;;;17.26;100.00;100390.11;1717571;82;21055;-73
2022/09/20 08:04:49;;;;;;;3.55;2.20;;;;;;;17.59;100.00;100386.75;1713943;83;21054;-73
2022/09/20 08:07:16;;;;;;;6.08;2.17;;;;;;;17.51;100.00;100396.09;1702023;83;21039;-73
2022/09/20 08:09:43;;;;;;;3.75;1.80;;;;;;;17.46;100.00;100386.48;1708452;82;21039;-73
2022/09/20 08:12:12;;;;;;;1.85;1.52;;;;;;;17.82;100.00;100377.20;1713442;83;21052;-73
2022/09/20 08:14:41;;;;;;;3.05;1.90;;;;;;;17.87;100.00;100387.78;1712550;83;21070;-73
2022/09/20 08:17:10;;;;;;;6.35;2.40;;;;;;;18.20;100.00;100385.63;1703649;83;21218;-73
2022/09/20 08:19:43;;;;;;;2.55;1.98;;;;;;;18.47;100.00;100386.55;1704512;83;21108;-72
2022/09/20 08:22:06;;;;;;;3.33;2.00;;;;;;;18.30;100.00;100387.87;1703487;83;21004;-72
2022/09/20 08:24:33;;;;;;;3.67;2.00;;;;;;;18.54;100.00;100386.89;1704245;81;21518;-73
2022/09/20 08:27:00;;;;;;;4.08;1.90;;;;;;;18.56;100.00;100379.30;1695396;83;21010;-73
2022/09/20 08:29:27;;;;;;;3.00;2.00;;;;;;;18.67;100.00;100390.16;1707966;83;21043;-73
2022/09/20 08:31:57;;;;;;;2.37;1.85;;;;;;;18.67;100.00;100398.46;1711092;83;21024;-74
2022/09/20 08:34:23;;;;;;;2.17;1.98;;;;;;;18.70;100.00;100400.84;1702584;83;21039;-73
2022/09/20 08:36:55;;;;;;;2.35;1.87;;;;;;;19.04;100.00;100399.43;1712809;83;21020;-74
2022/09/20 08:39:22;;;;;;;4.05;1.80;;;;;;;19.35;100.00;100395.15;1705155;83;21610;-73
2022/09/20 08:42:04;;;;;;;3.02;1.82;;;;;;;19.54;100.00;100403.58;1697780;83;21641;-73
2022/09/20 08:44:42;;;;;;;3.58;1.85;;;;;;;18.92;100.00;100400.80;1687655;83;21038;-74
2022/09/20 08:47:22;;;;;;;3.95;1.85;;;;;;;19.17;100.00;100396.19;1707776;83;21057;-74
2022/09/20 08:49:53;;;;;;;3.22;2.15;;;;;;;19.78;100.00;100393.70;1700997;83;20989;-74
2022/09/20 08:52:31;;;;;;;3.02;2.30;;;;;;;19.86;100.00;100397.46;1700651;83;21272;-73
2022/09/20 08:55:00;;;;;;;6.05;2.22;;;;;;;19.92;100.00;100400.86;1701430;83;20999;-73
2022/09/20 08:57:31;;;;;;;3.52;2.17;;;;;;;19.92;100.00;100410.00;1668157;84;21064;-73
2022/09/20 09:00:00;;;;;;;6.12;2.27;;;;;;;19.97;100.00;100406.05;1689460;83;21537;-73
2022/09/20 09:02:32;;;;;;;3.33;2.02;;;;;;;19.92;100.00;100406.09;1699649;83;21039;-73
2022/09/20 09:05:01;;;;;;;3.27;2.17;;;;;;;20.45;100.00;100405.03;1700749;83;21007;-73
2022/09/20 09:07:29;;;;;;;3.02;2.12;;;;;;;20.17;100.00;100400.42;1712808;83;21034;-74
2022/09/20 09:09:57;;;;;;;4.25;2.10;;;;;;;20.64;100.00;100402.50;1702810;82;21639;-74
2022/09/20 09:12:30;;;;;;;3.08;2.22;;;;;;;20.71;100.00;100406.20;1706007;83;21093;-72
2022/09/20 09:15:02;;;;;;;3.98;2.30;;;;;;;20.86;100.00;100407.93;1707025;83;21067;-73
2022/09/20 09:17:30;;;;;;;3.98;2.15;;;;;;;20.83;100.00;100413.94;1701466;83;21033;-74
2022/09/20 09:20:11;;;;;;;5.45;2.12;;;;;;;20.73;100.00;100415.23;1699552;83;21008;-74
2022/09/20 09:22:42;;;;;;;4.58;2.52;;;;;;;20.67;100.00;100413.16;1702331;83;21072;-74
2022/09/20 09:25:30;;;;;;;6.72;2.58;;;;;;;19.98;100.00;100409.48;1703636;83;21064;-73
2022/09/20 09:28:11;;;;;;;5.25;2.20;;;;;;;20.19;100.00;100411.57;1704309;83;21048;-74
2022/09/20 09:30:43;;;;;;;5.10;2.60;;;;;;;20.48;100.00;100406.90;1695444;83;21095;-74
2022/09/20 09:33:32;;;;;;;4.95;2.40;;;;;;;20.83;100.00;100410.84;1667084;85;21124;-74
2022/09/20 09:36:16;;;;;;;3.77;2.60;;;;;;;20.96;100.00;100406.14;1654677;86;21648;-72
2022/09/20 09:38:45;;;;;;;2.70;2.00;;;;;;;21.20;100.00;100397.05;1653156;87;21057;-71
2022/09/20 09:41:32;;;;;;;4.53;2.80;;;;;;;21.38;100.00;100397.17;1653113;87;21038;-72
2022/09/20 09:44:09;;;;;;;3.25;2.50;;;;;;;21.45;100.00;100393.53;1633576;87;21034;-71
2022/09/20 09:46:39;;;;;;;4.72;2.22;;;;;;;21.49;100.00;100387.89;1652992;86;21073;-72
2022/09/20 09:49:23;;;;;;;3.05;2.22;;;;;;;21.53;100.00;100379.25;1652781;86;21104;-72
2022/09/20 09:52:13;;;;;;;5.58;2.60;;;;;;;21.68;100.00;100378.33;1653788;87;21136;-72
2022/09/20 09:54:51;;;;;;;4.92;2.30;;;;;;;21.84;100.00;100384.25;1653459;87;21070;-71
2022/09/20 09:57:54;;;;;;;5.22;2.60;;;;;;;21.78;100.00;100376.01;1653662;86;21124;-73
2022/09/20 10:00:25;;;;;;;3.92;2.42;;;;;;;21.87;100.00;100372.19;1653400;86;21173;-73
2022/09/20 10:03:15;;;;;;;3.10;2.58;;;;;;;21.74;100.00;100369.41;1634892;87;21029;-73
2022/09/20 10:06:17;;;;;;;5.60;2.58;;;;;;;21.43;100.00;100366.66;1653629;87;21137;-73
2022/09/20 10:09:13;;;;;;;3.30;2.52;;;;;;;21.19;100.00;100367.94;1653453;86;21112;-73
2022/09/20 10:12:19;;;;;;;5.58;2.40;;;;;;;20.94;100.00;100352.30;1652569;86;21537;-73
2022/09/20 10:14:54;;;;;;;4.00;2.15;;;;;;;21.23;100.00;100356.22;1653358;86;21684;-74
2022/09/20 10:17:51;;;;;;;4.92;2.50;;;;;;;21.73;100.00;100352.02;1653479;87;21592;-74
2022/09/20 10:20:45;;;;;;;3.80;2.67;;;;;;;21.86;100.00;100350.41;1653684;87;21089;-73
2022/09/20 10:23:23;;;;;;;5.70;2.65;;;;;;;21.87;100.00;100352.53;1653674;86;21506;-74
2022/09/20 10:26:02;;;;;;;5.72;2.85;;;;;;;21.61;100.00;100342.69;1653578;87;21053;-73
2022/09/20 10:29:00;;;;;;;4.87;2.62;;;;;;;21.41;100.00;100332.72;1653665;86;21057;-74
2022/09/20 10:31:56;;;;;;;3.98;2.72;;;;;;;21.47;100.00;100326.98;1653611;86;21025;-73
2022/09/20 10:34:52;;;;;;;5.80;2.65;;;;;;;21.23;100.00;100334.42;1653500;85;21148;-73
2022/09/20 10:37:54;;;;;;;5.87;2.72;;;;;;;21.11;100.00;100318.08;1653633;86;21100;-73
2022/09/20 10:43:39;;;;;;;5.65;2.83;;;;;;;21.11;100.00;100322.00;1653618;87;21077;-74
2022/09/20 10:46:36;;;;;;;5.95;2.85;;;;;;;21.08;100.00;100318.34;1653261;86;21030;-73
2022/09/20 10:49:16;;;;;;;4.22;2.55;;;;;;;20.99;100.00;100319.52;1653275;87;21094;-74
2022/09/20 10:52:08;;;;;;;4.40;2.83;;;;;;;21.01;100.00;100307.62;1563636;86;21065;-74
2022/09/20 10:55:14;;;;;;;4.83;2.52;;;;;;;21.28;100.00;100300.80;1653564;86;21038;-73
2022/09/20 10:57:46;;;;;;;5.67;2.87;;;;;;;21.19;100.00;100299.38;1657809;86;21028;-73
2022/09/20 11:00:42;;;;;;;4.50;2.77;;;;;;;21.21;100.00;100293.52;1662898;86;21031;-74
2022/09/20 11:03:38;;;;;;;4.92;2.58;;;;;;;21.13;100.00;100300.44;1704783;83;21065;-74
2022/09/20 11:06:44;;;;;;;8.00;3.20;;;;;;;20.98;100.00;100311.31;1693896;82;21169;-74
2022/09/20 11:09:17;;;;;;;4.92;2.72;;;;;;;20.87;100.00;100301.02;1693381;83;21096;-73
2022/09/20 11:12:07;;;;;;;4.55;2.87;;;;;;;20.93;100.00;100287.38;1701369;83;21020;-73
2022/09/20 11:14:48;;;;;;;4.78;3.10;;;;;;;20.92;100.00;100283.09;1697816;83;21121;-75
2022/09/20 11:17:30;;;;;;;3.25;2.83;;;;;;;20.52;100.00;100284.53;1690062;82;21099;-74
2022/09/20 11:20:24;;;;;;;5.35;3.20;;;;;;;20.35;100.00;100292.59;1701437;83;21102;-73
2022/09/20 11:23:11;;;;;;;5.60;3.00;;;;;;;20.55;100.00;100292.94;1689228;83;21064;-73
2022/09/20 11:25:44;;;;;;;5.35;3.10;;;;;;;20.80;100.00;100299.91;1708789;83;21164;-73
2022/09/20 11:28:32;;;;;;;8.10;2.95;;;;;;;21.20;100.00;100297.09;1683767;83;21066;-73
2022/09/20 11:31:09;;;;;;;4.83;2.90;;;;;;;21.48;100.00;100298.50;1689936;83;21079;-74
2022/09/20 11:33:44;;;;;;;6.20;3.42;;;;;;;21.96;100.00;100304.50;1722564;82;21070;-74
2022/09/20 11:36:16;;;;;;;4.83;3.00;;;;;;;22.36;100.00;100313.31;1711523;83;21129;-73
2022/09/20 11:38:55;;;;;;;3.90;2.95;;;;;;;22.24;100.00;100325.45;1706511;83;21084;-74
2022/09/20 11:41:30;;;;;;;3.80;2.58;;;;;;;22.38;100.00;100323.17;1705152;83;21087;-73
2022/09/20 11:44:14;;;;;;;4.53;3.02;;;;;;;22.58;100.00;100319.89;1698141;83;21031;-74
2022/09/20 11:46:47;;;;;;;;;;;;;;;22.82;100.00;100325.52;1698529;84;21126;-74
2022/09/20 11:49:35;;;;;;;4.90;2.98;;;;;;;22.76;100.00;100320.38;1685531;83;20116;-74
2022/09/20 11:52:30;;;;;;;4.03;2.65;;;;;;;22.89;100.00;100326.08;1712510;83;21074;-75
2022/09/20 11:55:23;;;;;;;4.78;2.77;;;;;;;23.06;100.00;100321.80;1718923;83;21012;-73
2022/09/20 11:58:17;;;;;;;3.20;2.37;;;;;;;23.16;100.00;100332.20;1692574;83;21132;-74
2022/09/20 12:00:51;;;;;;;6.75;2.98;;;;;;;23.07;100.00;100329.17;1694091;83;21058;-72
2022/09/20 12:03:37;;;;;;;5.47;2.83;;;;;;;22.83;100.00;100328.00;1705933;83;21571;-73
2022/09/20 12:06:10;;;;;;;4.33;2.70;;;;;;;22.42;100.00;100328.10;1694626;83;21092;-73
2022/09/20 12:08:40;;;;;;;3.85;2.65;;;;;;;22.57;100.00;100325.31;1708941;83;21479;-72
2022/09/20 12:11:11;;;;;;;4.47;2.75;;;;;;;22.65;100.00;100330.62;1697756;83;21090;-73
2022/09/20 12:13:42;;;;;;;5.37;2.27;;;;;;;22.58;100.00;100325.14;1697755;83;21043;-73
2022/09/20 12:16:38;;;;;;;7.28;2.80;;;;;;;21.93;100.00;100315.27;1694927;83;21038;-73
2022/09/20 12:19:26;;;;;;;3.17;2.62;;;;;;;21.60;100.00;100301.27;1714723;83;21079;-72
2022/09/20 12:22:04;;;;;;;5.50;2.58;;;;;;;21.73;100.00;100302.24;1703273;83;21506;-72
2022/09/20 12:24:35;;;;;;;5.65;3.00;;;;;;;21.96;100.00;100294.84;1695337;83;21050;-73
2022/09/20 12:27:28;;;;;;;4.30;3.00;;;;;;;22.01;100.00;100287.83;1702862;83;21083;-72
2022/09/20 12:30:19;;;;;;;6.25;2.47;;;;;;;22.25;100.00;100286.48;1687311;83;21569;-73
2022/09/20 12:32:52;;;;;;;6.50;3.08;;;;;;;22.42;100.00;100292.20;1701933;83;21547;-73
2022/09/20 12:35:51;;;;;;;5.95;3.05;;;;;;;22.48;100.00;100294.22;1716962;83;21074;-72
2022/09/20 12:38:30;;;;;;;5.15;3.00;;;;;;;22.53;100.00;100297.73;1709022;83;21042;-72
2022/09/20 12:41:11;;;;;;;5.62;2.70;;;;;;;22.40;100.00;100308.11;1710955;83;21066;-72
2022/09/20 12:43:57;;;;;;;4.53;2.58;;;;;;;22.53;100.00;100309.04;1696753;83;21052;-71
2022/09/20 12:46:40;;;;;;;5.90;2.60;;;;;;;22.38;100.00;100320.55;1706947;83;21042;-71
2022/09/20 12:55:51;;;;;;;7.42;2.10;;;;;;;21.83;100.00;100323.66;1705799;83;21609;-72
2022/09/20 12:58:39;;;;;;;5.72;2.40;;;;;;;21.69;100.00;100322.33;1693986;83;21076;-72
2022/09/20 13:01:11;;;;;;;5.92;2.30;;;;;;;21.65;100.00;100310.00;1683708;83;21117;-72
2022/09/20 13:03:47;;;;;;;4.50;2.30;;;;;;;21.44;100.00;100311.53;1706822;83;21102;-72
2022/09/20 13:06:21;;;;;;;4.87;2.45;;;;;;;21.57;100.00;100317.30;1716699;83;21098;-72
2022/09/20 13:09:07;;;;;;;4.83;2.47;;;;;;;21.50;100.00;100310.14;1711926;83;21018;-72
2022/09/20 13:11:55;;;;;;;4.55;2.33;;;;;;;21.64;100.00;100309.67;1701374;83;20992;-72
2022/09/20 13:14:30;;;;;;;4.65;2.35;;;;;;;21.59;100.00;100302.72;1703575;83;21113;-72
2022/09/20 13:17:06;;;;;;;4.53;2.45;;;;;;;21.73;100.00;100308.80;1698307;83;21158;-71
2022/09/20 13:19:43;;;;;;;3.95;2.20;;;;;;;21.85;99.69;100304.69;1711986;83;21320;-72
2022/09/20 13:22:35;;;;;;;4.20;2.22;;;;;;;21.90;99.83;100303.28;1693749;83;21121;-72
2022/09/20 13:25:06;;;;;;;5.30;2.20;;;;;;;21.91;100.00;100297.55;1698647;83;21007;-72
2022/09/20 13:27:40;;;;;;;7.60;2.30;;;;;;;21.95;100.00;100301.52;1704223;83;21581;-71
2022/09/20 13:30:25;;;;;;;6.30;2.45;;;;;;;21.85;100.00;100296.33;1706549;83;21531;-72
2022/09/20 13:32:53;;;;;;;3.33;2.00;;;;;;;21.88;100.00;100295.20;1716137;83;21059;-72
2022/09/20 13:35:23;;;;;;;4.10;2.50;;;;;;;21.87;100.00;100283.91;1701880;82;21668;-72
2022/09/20 13:37:59;;;;;;;4.00;2.40;;;;;;;21.86;100.00;100287.52;1706294;83;21054;-72
2022/09/20 13:40:37;;;;;;;3.52;2.30;;;;;;;21.76;100.00;100282.31;1699565;83;21094;-72
2022/09/20 13:43:09;;;;;;;4.87;2.35;;;;;;;21.64;100.00;100279.55;1701799;83;21055;-72
2022/09/20 13:45:41;;;;;;;4.95;2.52;;;;;;;21.56;100.00;100280.27;1689800;83;21045;-72
2022/09/20 13:48:09;;;;;;;6.58;2.42;;;;;;;21.47;100.00;100278.99;1702947;83;21110;-72
2022/09/20 13:50:39;;;;;;;4.60;2.40;;;;;;;21.39;100.00;100271.36;1705174;83;21054;-73
2022/09/20 13:53:17;;;;;;;3.12;2.20;;;;;;;21.25;100.00;100267.04;1704310;83;21090;-72
2022/09/20 13:55:47;;;;;;;6.28;2.90;;;;;;;21.19;100.00;100264.53;1712646;83;21047;-72
2022/09/20 13:58:36;;;;;;;5.95;2.98;;;;;;;21.11;100.00;100265.23;1704998;83;21534;-73
2022/09/20 14:01:08;;;;;;;5.42;2.60;;;;;;;20.95;100.00;100262.38;1697442;83;21026;-73
2022/09/20 14:03:36;;;;;;;5.67;2.80;;;;;;;20.83;100.00;100264.33;1704931;83;21500;-73
2022/09/20 14:06:13;;;;;;;4.62;2.83;;;;;;;20.64;100.00;100253.41;1709647;84;21087;-72
2022/09/20 14:08:48;;;;;;;6.12;2.80;;;;;;;20.47;100.00;100249.66;1698220;82;21002;-73
2022/09/20 14:11:20;;;;;;;5.87;2.95;;;;;;;20.36;100.00;100238.05;1704233;82;21058;-73
2022/09/20 14:14:00;;;;;;;7.25;3.30;;;;;;;20.35;100.00;100233.77;1706891;83;21024;-74
2022/09/20 14:16:35;;;;;;;5.33;3.02;;;;;;;20.34;100.00;100223.80;1699199;84;21049;-73
2022/09/20 14:19:06;;;;;;;8.28;3.20;;;;;;;20.33;100.00;100218.70;1701847;83;21105;-73
2022/09/20 14:21:36;;;;;;;6.15;3.40;;;;;;;20.38;100.00;100214.72;1705698;83;21435;-74
2022/09/20 14:24:08;;;;;;;6.42;4.10;;;;;;;20.28;100.00;100208.67;1709019;84;21064;-74
2022/09/20 14:26:38;;;;;;;9.13;4.25;;;;;;;20.16;100.00;100201.92;1701305;83;21038;-74
2022/09/20 14:29:30;;;;;;;7.25;3.77;;;;;;;20.11;100.00;100203.63;1697849;84;21070;-73
2022/09/20 14:32:10;;;;;;;6.45;3.80;;;;;;;20.13;100.00;100208.27;1698391;83;21625;-74
2022/09/20 14:34:39;;;;;;;7.30;3.85;;;;;;;20.07;100.00;100215.31;1695802;83;21114;-74
2022/09/20 14:37:14;;;;;;;5.70;3.60;;;;;;;19.96;100.00;100209.73;1703762;83;21019;-73
2022/09/20 14:39:54;;;;;;;5.55;3.92;;;;;;;19.95;100.00;100202.03;1705983;83;21048;-74
2022/09/20 14:42:34;;;;;;;6.55;4.33;;;;;;;19.91;100.00;100198.88;1696880;83;21067;-74
2022/09/20 14:45:04;;;;;;;7.03;4.58;;;;;;;19.85;100.00;100198.58;1695495;83;21523;-74
2022/09/20 14:47:51;;;;;;;6.22;4.40;;;;;;;19.79;100.00;100194.25;1697148;83;20987;-73
2022/09/20 14:50:38;;;;;;;6.62;4.33;;;;;;;19.73;100.00;100199.20;1686958;83;21071;-74
2022/09/20 14:53:13;;;;;;;9.28;4.50;;;;;;;19.64;100.00;100179.89;1708768;84;21044;-74
2022/09/20 14:56:01;;;;;;;7.35;4.20;;;;;;;19.56;100.00;100173.20;1697520;84;21095;-74
2022/09/20 14:58:28;;;;;;;6.08;3.58;;;;;;;19.49;100.00;100167.70;1694570;83;21122;-74
2022/09/20 15:01:04;;;;;;;6.60;4.37;;;;;;;19.45;100.00;100157.67;1709942;83;21056;-72
2022/09/20 15:03:40;;;;;;;7.67;4.03;;;;;;;19.41;100.00;100159.23;1702717;83;21075;-74
2022/09/20 15:06:12;;;;;;;7.80;4.12;;;;;;;19.35;100.00;100150.62;1696890;83;21050;-73
2022/09/20 15:08:39;;;;;;;8.28;3.70;;;;;;;19.30;100.00;100161.11;1706910;83;21067;-74
2022/09/20 15:11:13;;;;;;;8.40;3.70;;;;;;;19.27;100.00;100164.00;1693695;83;21552;-74
2022/09/20 15:13:40;;;;;;;6.37;3.98;;;;;;;19.20;100.00;100160.61;1703573;83;21043;-73
2022/09/20 15:16:11;;;;;;;14.55;4.28;;;;;;;19.15;100.00;100148.91;1700578;83;21619;-74
2022/09/20 15:18:41;;;;;;;4.97;3.67;;;;;;;19.06;100.00;100148.38;1697780;83;21510;-74
2022/09/20 15:21:10;;;;;;;6.85;4.22;;;;;;;19.04;100.00;100143.77;1710314;83;21035;-74
2022/09/20 15:23:38;;;;;;;6.70;4.08;;;;;;;18.92;100.00;100139.97;1711288;82;21554;-74
2022/09/20 15:26:07;;;;;;;8.20;4.00;;;;;;;18.81;100.00;100136.94;1705898;83;21064;-74
2022/09/20 15:28:34;;;;;;;8.30;4.15;;;;;;;18.75;100.00;100140.52;1697185;82;21103;-74
2022/09/20 15:31:01;;;;;;;7.45;4.47;;;;;;;18.66;100.00;100130.89;1704372;83;21534;-74
2022/09/20 15:33:31;;;;;;;6.30;4.20;;;;;;;18.52;100.00;100123.73;1691848;83;21053;-74
2022/09/20 15:36:01;;;;;;;7.53;4.40;;;;;;;18.41;100.00;100118.61;1696106;83;21084;-75
2022/09/20 15:38:30;;;;;;;9.58;4.90;;;;;;;18.29;100.00;100120.90;1697966;83;21065;-74
2022/09/20 15:41:03;;;;;;;11.40;6.15;;;;;;;18.19;100.00;100117.77;1704885;83;21549;-74
2022/09/20 15:43:30;;;;;;;8.57;5.17;;;;;;;18.04;100.00;100113.80;1716222;83;21037;-74
2022/09/20 15:46:18;;;;;;;9.90;5.08;;;;;;;17.99;100.00;100120.70;1704171;83;21586;-74
2022/09/20 15:48:45;;;;;;;7.53;5.15;;;;;;;18.00;100.00;100122.81;1701090;83;21060;-74
2022/09/20 15:51:14;;;;;;;11.30;5.08;;;;;;;17.91;100.00;100111.86;1706415;83;21053;-75
2022/09/20 15:53:48;;;;;;;10.43;5.42;;;;;;;17.84;100.00;100110.70;1700681;83;21051;-74
2022/09/20 15:56:18;;;;;;;;;;;;;;;17.78;100.00;100102.41;1703665;83;21064;-75
2022/09/20 15:58:57;;;;;;;12.50;5.85;;;;;;;17.69;100.00;100100.54;1697121;84;20149;-74
2022/09/20 16:01:20;;;;;;;11.20;5.55;;;;;;;17.60;100.00;100093.48;1698083;83;21505;-75
2022/09/20 16:03:49;;;;;;;7.97;4.87;;;;;;;17.60;100.00;100085.67;1717657;83;21049;-74
2022/09/20 16:06:18;;;;;;;8.10;4.85;;;;;;;17.57;100.00;100089.81;1706977;83;21033;-73
2022/09/20 16:08:45;;;;;;;7.83;4.92;;;;;;;17.55;100.00;100086.02;1714305;83;21057;-74
2022/09/20 16:11:15;;;;;;;9.35;4.37;;;;;;;17.59;100.00;100090.52;1718286;83;21072;-74
2022/09/20 16:13:43;;;;;;;10.85;5.30;;;;;;;17.59;100.00;100097.84;1711236;83;21024;-74
2022/09/20 16:16:14;;;;;;;8.55;4.90;;;;;;;17.59;100.00;100103.53;1699700;83;21105;-74
2022/09/20 16:21:27;;;;;;;8.65;5.45;;;;;;;17.45;100.00;100108.52;1702167;83;21050;-74
2022/09/20 16:23:56;;;;;;;7.70;4.80;;;;;;;17.39;100.00;100105.11;1709074;82;21016;-75
2022/09/20 16:26:26;;;;;;;7.72;5.10;;;;;;;17.33;100.00;100102.99;1710042;83;21011;-74
2022/09/20 16:28:56;;;;;;;9.35;5.60;;;;;;;17.28;100.00;100104.66;1677084;81;20982;-73
2022/09/20 16:31:43;;;;;;;7.70;4.90;;;;;;;17.21;100.00;100099.58;1690283;83;22238;-74
2022/09/20 16:34:18;;;;;;;7.20;5.20;;;;;;;17.16;100.00;100091.32;1704028;82;21607;-73
2022/09/20 16:36:50;;;;;;;7.60;4.92;;;;;;;17.07;100.00;100096.78;1713083;83;21562;-73
2022/09/20 16:39:19;;;;;;;8.60;5.00;;;;;;;17.04;100.00;100099.60;1701307;83;22157;-74
2022/09/20 16:41:47;;;;;;;9.83;5.53;;;;;;;16.98;100.00;100098.30;1694398;82;21085;-74
2022/09/20 16:44:15;;;;;;;6.60;5.00;;;;;;;16.95;100.00;100105.05;1711666;83;21067;-74
2022/09/20 16:46:43;;;;;;;5.67;5.00;;;;;;;16.90;100.00;100096.77;1711962;82;21051;-73
2022/09/20 16:49:11;;;;;;;10.53;5.20;;;;;;;16.86;100.00;100097.13;1699458;83;21076;-73
2022/09/20 16:51:41;;;;;;;7.15;5.03;;;;;;;16.83;100.00;100094.30;1706296;83;21012;-73
2022/09/20 16:54:15;;;;;;;7.95;4.80;;;;;;;16.80;100.00;100094.48;1711110;83;21519;-74
2022/09/20 16:56:47;;;;;;;;;;;;;;;16.81;100.00;100100.09;1702870;83;21606;-73
2022/09/20 16:59:20;;;;;;;9.43;4.83;;;;;;;16.79;100.00;100087.66;1704023;84;20172;-73
2022/09/20 17:01:48;;;;;;;6.37;4.53;;;;;;;16.74;100.00;100087.98;1702995;84;21223;-73
2022/09/20 17:04:19;;;;;;;9.45;4.87;;;;;;;16.70;100.00;100088.34;1688284;83;21058;-71
2022/09/20 17:06:49;;;;;;;10.70;4.75;;;;;;;16.68;100.00;100092.83;1688594;83;21106;-73
2022/09/20 17:09:17;;;;;;;7.75;4.60;;;;;;;16.68;100.00;100104.52;1702469;83;21597;-73
2022/09/20 17:11:49;;;;;;;9.35;4.53;;;;;;;16.63;100.00;100100.98;1713671;83;21055;-73
2022/09/20 17:14:19;;;;;;;9.68;4.40;;;;;;;16.58;100.00;100098.71;1713177;83;21038;-73
2022/09/20 17:16:47;;;;;;;7.47;4.15;;;;;;;16.55;100.00;100099.44;1680080;83;21054;-73
2022/09/20 17:19:18;;;;;;;6.78;4.20;;;;;;;16.47;100.00;100100.02;1684068;84;21013;-73
2022/09/20 17:21:48;;;;;;;6.92;3.80;;;;;;;16.47;100.00;100099.19;1697387;83;21079;-73
2022/09/20 17:24:21;;;;;;;5.42;3.83;;;;;;;16.36;100.00;100105.17;1707088;83;21574;-74
2022/09/20 17:26:49;;;;;;;5.95;3.67;;;;;;;16.31;100.00;100108.60;1701867;83;21134;-74
2022/09/20 17:29:18;;;;;;;6.70;3.85;;;;;;;16.21;100.00;100104.08;1704458;83;21062;-73
2022/09/20 17:31:49;;;;;;;11.53;3.87;;;;;;;16.11;100.00;100101.80;1696274;83;21559;-74
2022/09/20 17:34:20;;;;;;;6.72;3.45;;;;;;;16.01;100.00;100092.56;1692228;83;21134;-74
2022/09/20 17:36:47;;;;;;;5.87;3.40;;;;;;;15.96;100.00;100089.97;1719914;83;21575;-74
2022/09/20 17:39:15;;;;;;;6.15;3.40;;;;;;;15.91;100.00;100081.20;1687271;83;21046;-74
2022/09/20 17:41:46;;;;;;;5.55;3.10;;;;;;;15.88;100.00;100084.51;1680147;84;21559;-74
2022/09/20 17:44:14;;;;;;;5.35;3.20;;;;;;;15.89;100.00;100086.97;1703438;83;21171;-74
2022/09/20 17:46:46;;;;;;;4.62;3.20;;;;;;;15.88;100.00;100092.30;1714453;83;21015;-74
2022/09/20 17:49:17;;;;;;;7.85;3.40;;;;;;;15.83;100.00;100087.42;1720423;83;21019;-74
2022/09/20 17:51:49;;;;;;;6.78;3.83;;;;;;;15.78;100.00;100088.23;1721583;83;20999;-74
2022/09/20 17:54:17;;;;;;;6.08;3.15;;;;;;;15.75;100.00;100081.52;1719845;83;21090;-74
2022/09/20 17:56:49;;;;;;;6.05;3.40;;;;;;;15.75;100.00;100077.62;1717026;83;21059;-74
2022/09/20 17:59:18;;;;;;;8.40;3.02;;;;;;;15.70;100.00;100074.48;1706929;83;21047;-73
2022/09/20 18:01:50;;;;;;;6.15;3.05;;;;;;;15.66;100.00;100069.16;1704633;83;21042;-74
2022/09/20 18:04:19;;;;;;;8.48;2.92;;;;;;;15.59;100.00;100066.63;1701600;83;21515;-73
2022/09/20 18:06:49;;;;;;;8.23;3.22;;;;;;;15.56;100.00;100062.98;1722607;82;21071;-74
2022/09/20 18:09:20;;;;;;;8.53;3.35;;;;;;;15.53;100.00;100059.30;1722163;82;21051;-74
2022/09/20 18:11:51;;;;;;;5.62;3.00;;;;;;;15.47;100.00;100051.51;1711367;82;20996;-74
2022/09/20 18:14:26;;;;;;;12.30;3.75;;;;;;;15.41;100.00;100047.58;1721420;83;21118;-74
2022/09/20 18:16:56;;;;;;;11.90;3.30;;;;;;;15.37;100.00;100055.22;1694519;83;21545;-75
2022/09/20 18:19:23;;;;;;;6.20;2.87;;;;;;;15.33;100.00;100043.41;1699530;83;21059;-74
2022/09/20 18:21:50;;;;;;;8.28;3.25;;;;;;;15.30;100.00;100042.32;1704510;83;21038;-74
2022/09/20 18:24:17;;;;;;;9.30;3.60;;;;;;;15.27;100.00;100031.33;1713493;83;21038;-73
2022/09/20 18:26:44;;;;;;;12.70;3.75;;;;;;;15.24;100.00;100022.02;1695347;83;21062;-74
2022/09/20 18:29:16;;;;;;;9.15;3.75;;;;;;;15.19;100.00;100017.16;1696331;83;21034;-74
2022/09/20 18:31:50;;;;;;;8.25;3.87;;;;;;;15.13;100.00;100011.13;1690993;83;21492;-74
2022/09/20 18:34:24;;;;;;;6.67;3.52;;;;;;;15.09;100.00;100009.69;1698673;83;21044;-74
2022/09/20 18:36:55;;;;;;;11.50;3.70;;;;;;;15.03;100.00;100004.94;1705478;83;21077;-74
2022/09/20 18:39:25;;;;;;;6.12;3.50;;;;;;;14.91;100.00;100006.62;1697091;83;21082;-74
2022/09/20 18:41:53;;;;;;;8.98;3.90;;;;;;;14.81;100.00;100014.20;1690385;83;21059;-74
2022/09/20 18:44:21;;;;;;;11.30;3.65;;;;;;;14.70;100.00;100011.55;1695154;83;21512;-75
2022/09/20 18:46:51;;;;;;;8.73;3.98;;;;;;;14.61;100.00;100005.69;1698950;83;21095;-74